AirNav   Pilot Hours Calculator
 
 516 users online  

NY15 Lakeville Airport
Lakeville, New York, USA

GOING TO LAKEVILLE?


FAA INFORMATION EFFECTIVE 22 APRIL 2021

Location

FAA Identifier: NY15
Lat/Long: 42-49-35.2270N 077-42-52.0000W
42-49.587117N 077-42.866667W
42.8264519,-77.7144444
(estimated)
Elevation: 935 ft. / 285 m (estimated)
Variation: 11W (1985)
From city: 1 mile SW of LAKEVILLE, NY
Time zone: UTC -4 (UTC -5 during Standard Time)
Zip code: 14480

Airport Operations

Airport use: Private use. Permission required prior to landing
Activation date: 08/1966
Control tower: no
ARTCC: CLEVELAND CENTER
FSS: BUFFALO FLIGHT SERVICE STATION
Attendance: UNATNDD
Wind indicator: yes
Segmented circle: no

Airport Communications

WX ASOS at DSV (15 nm S): 118.325 (585-335-2380)
WX ASOS at ROC (18 nm N): 124.825 (585-235-7322)
WX AWOS-3P at IUA (18 nm E): 118.675 (585-396-5861)

Nearby radio navigation aids

VOR radial/distance  VOR name  Freq  Var
GEE at fieldGENESEO VOR/DME108.2009W
ROCr198/17.6ROCHESTER VOR/DME110.0012W

 
NDB name  Hdg/Dist  Freq  Var  ID
PENN YAN303/31.026012WPYA .--. -.-- .-

Airport Services

Airframe service: NONE
Powerplant service: NONE

Runway Information

Runway 1/19

Dimensions: 2800 x 60 ft. / 853 x 18 m
Surface: turf
RUNWAY 1  RUNWAY 19
Traffic pattern: leftleft
Obstructions: hgrnone

Airport Ownership and Management from official FAA records

Ownership: Privately-owned
Owner: LAKEVILLE AIRORT OWNERS, INC.
2697 LAKEVILLE RD
AVON, NY 14414
NO PHONE ON FIELD.
Manager: JOHN BODINE
3601 WEST LAKE ROAD
GENESEO, NY 14454
Phone 585-315-0094
CELL PHONE 585-355-9677.

Airport Operational Statistics

Aircraft based on the field: 8
Single engine airplanes: 8
    

Additional Remarks

FOR CD CTC CLEVELAND ARTCC AT 440-774-0490.

Instrument Procedures

There are no published instrument procedures at NY15.

Some nearby airports with instrument procedures:

5G0 - Le Roy Airport (13 nm NW)
KDSV - Dansville Municipal Airport (15 nm S)
KROC - Frederick Douglass - Greater Rochester International Airport (18 nm N)
KIUA - Canandaigua Airport (18 nm E)
7G0 - Ledgedale Airpark (23 nm N)
 
Loc | Ops | Rwys | IFR | FBO | Links
Com | Nav | Svcs | Stats | Notes
Area around NY15 (Lakeville Airport)
 
Road maps at: MapQuest Bing Google
 
Aerial photo
WARNING: Photo may not be current or correct
Aerial photo of NY15 (Lakeville Airport)
Do you have a better or more recent aerial photo of Lakeville Airport that you would like to share? If so, please send us your photo.

 
Sectional chart

 
Airport distance calculator
Flying to Lakeville Airport? Find the distance to fly.

From to NY15

Sunrise and sunset
Times for 16-May-2021
 Local
(UTC-4)
 Zulu
(UTC)
Morning civil twilight05:1509:15
Sunrise05:4809:48
Sunset20:2600:26
Evening civil twilight20:5900:59

Current date and time
Zulu (UTC)  16-May-2021 11:15:44
Local (UTC-4)  16-May-2021 07:15:44
 
METAR
KDSV 
16nm S 
161054Z AUTO 13005KT 10SM CLR 09/03 A3027 RMK AO2 SLP257 T00890033
KROC 
17nm N 
161054Z 23003KT 10SM FEW090 FEW120 SCT160 BKN240 08/04 A3025 RMK AO2 SLP246 T00830039 $
KIUA 
18nm E 
161055Z AUTO 00000KT 10SM BKN120 09/07 A3024 RMK AO2 T00870065
KGVQ 
23nm NW 
161056Z AUTO 22005KT 10SM BKN100 12/02 A3024 RMK AO2 SLP240 T01220017
KPEO 
31nm E 
161053Z AUTO 23006KT 10SM OVC110 09/04 A3026 RMK AO2 SLP246 T00890044
TAF
KROC 
17nm N 
160906Z 1609/1706 22004KT P6SM SCT150 FM161800 03007KT P6SM SCT150 FM162000 12009KT P6SM SCT250 FM162300 17007KT P6SM SCT250
NOTAMs
Click for the latest NOTAMs
NOTAMs are issued by the DoD/FAA and will open in a separate window not controlled by AirNav.

 

 
 

Would you like to see your business listed on this page?

 If your business provides an interesting product or service to pilots, flight crews, aircraft, or users of the Lakeville Airport, you should consider listing it here.  To start the listing process, click on the button below
 
Add a business
 

Other Pages about Lakeville Airport

Update a link
 
Copyright © AirNav, LLC. All rights reserved. Privacy Policy  Contact